sensor_id;sensor_type;location;lat;lon;timestamp;P1;durP1;ratioP1;P2;durP2;ratioP2
80623;SDS011;70269;44.768;9.600;2023-12-20T00:02:09;3.10;;;1.65;;
80623;SDS011;70269;44.768;9.600;2023-12-20T00:04:35;2.42;;;1.55;;
80623;SDS011;70269;44.768;9.600;2023-12-20T00:07:00;3.33;;;1.88;;
80623;SDS011;70269;44.768;9.600;2023-12-20T00:09:26;2.35;;;1.30;;
80623;SDS011;70269;44.768;9.600;2023-12-20T00:11:52;1.13;;;0.77;;
80623;SDS011;70269;44.768;9.600;2023-12-20T00:14:17;3.85;;;1.48;;
80623;SDS011;70269;44.768;9.600;2023-12-20T00:16:43;1.00;;;0.80;;
80623;SDS011;70269;44.768;9.600;2023-12-20T00:19:08;2.97;;;1.13;;
80623;SDS011;70269;44.768;9.600;2023-12-20T00:21:34;0.35;;;0.30;;
80623;SDS011;70269;44.768;9.600;2023-12-20T00:23:59;2.95;;;0.75;;
80623;SDS011;70269;44.768;9.600;2023-12-20T00:26:25;0.85;;;0.60;;
80623;SDS011;70269;44.768;9.600;2023-12-20T00:28:51;0.75;;;0.52;;
80623;SDS011;70269;44.768;9.600;2023-12-20T00:31:16;1.05;;;0.55;;
80623;SDS011;70269;44.768;9.600;2023-12-20T00:33:42;1.25;;;0.50;;
80623;SDS011;70269;44.768;9.600;2023-12-20T00:36:09;2.28;;;0.77;;
80623;SDS011;70269;44.768;9.600;2023-12-20T00:38:34;0.20;;;0.20;;
80623;SDS011;70269;44.768;9.600;2023-12-20T00:41:00;1.02;;;0.45;;
80623;SDS011;70269;44.768;9.600;2023-12-20T00:43:26;1.58;;;0.60;;
80623;SDS011;70269;44.768;9.600;2023-12-20T00:45:52;2.75;;;0.75;;
80623;SDS011;70269;44.768;9.600;2023-12-20T00:48:17;0.73;;;0.40;;
80623;SDS011;70269;44.768;9.600;2023-12-20T00:50:43;0.30;;;0.30;;
80623;SDS011;70269;44.768;9.600;2023-12-20T00:53:08;1.58;;;1.02;;
80623;SDS011;70269;44.768;9.600;2023-12-20T00:55:34;0.68;;;0.40;;
80623;SDS011;70269;44.768;9.600;2023-12-20T00:57:59;0.20;;;0.10;;
80623;SDS011;70269;44.768;9.600;2023-12-20T01:00:25;2.38;;;0.60;;
80623;SDS011;70269;44.768;9.600;2023-12-20T01:02:51;2.75;;;0.75;;
80623;SDS011;70269;44.768;9.600;2023-12-20T01:05:17;0.85;;;0.55;;
80623;SDS011;70269;44.768;9.600;2023-12-20T01:07:44;0.95;;;0.80;;
80623;SDS011;70269;44.768;9.600;2023-12-20T01:10:10;9.30;;;0.75;;
80623;SDS011;70269;44.768;9.600;2023-12-20T01:12:36;0.47;;;0.20;;
80623;SDS011;70269;44.768;9.600;2023-12-20T01:15:02;0.52;;;0.10;;
80623;SDS011;70269;44.768;9.600;2023-12-20T01:17:27;0.47;;;0.40;;
80623;SDS011;70269;44.768;9.600;2023-12-20T01:19:53;0.43;;;0.20;;
80623;SDS011;70269;44.768;9.600;2023-12-20T01:22:19;1.08;;;0.77;;
80623;SDS011;70269;44.768;9.600;2023-12-20T01:24:44;0.63;;;0.20;;
80623;SDS011;70269;44.768;9.600;2023-12-20T01:27:10;0.77;;;0.32;;
80623;SDS011;70269;44.768;9.600;2023-12-20T01:29:35;0.63;;;0.30;;
80623;SDS011;70269;44.768;9.600;2023-12-20T01:32:00;0.77;;;0.75;;
80623;SDS011;70269;44.768;9.600;2023-12-20T01:34:26;0.93;;;0.57;;
80623;SDS011;70269;44.768;9.600;2023-12-20T01:36:52;1.08;;;0.40;;
80623;SDS011;70269;44.768;9.600;2023-12-20T01:39:17;0.85;;;0.43;;
80623;SDS011;70269;44.768;9.600;2023-12-20T01:41:43;0.55;;;0.38;;
80623;SDS011;70269;44.768;9.600;2023-12-20T01:44:08;0.82;;;0.57;;
80623;SDS011;70269;44.768;9.600;2023-12-20T01:46:34;1.65;;;0.63;;
80623;SDS011;70269;44.768;9.600;2023-12-20T01:49:00;0.73;;;0.50;;
80623;SDS011;70269;44.768;9.600;2023-12-20T01:51:25;0.52;;;0.52;;
80623;SDS011;70269;44.768;9.600;2023-12-20T01:53:53;0.95;;;0.82;;
80623;SDS011;70269;44.768;9.600;2023-12-20T01:56:22;0.28;;;0.28;;
80623;SDS011;70269;44.768;9.600;2023-12-20T01:58:47;0.40;;;0.30;;
80623;SDS011;70269;44.768;9.600;2023-12-20T02:01:13;0.47;;;0.32;;
80623;SDS011;70269;44.768;9.600;2023-12-20T02:03:40;0.17;;;0.17;;
80623;SDS011;70269;44.768;9.600;2023-12-20T02:06:07;0.55;;;0.40;;
80623;SDS011;70269;44.768;9.600;2023-12-20T02:08:33;0.60;;;0.40;;
80623;SDS011;70269;44.768;9.600;2023-12-20T02:10:59;1.50;;;0.70;;
80623;SDS011;70269;44.768;9.600;2023-12-20T02:13:25;2.42;;;0.70;;
80623;SDS011;70269;44.768;9.600;2023-12-20T02:15:52;5.22;;;1.35;;
80623;SDS011;70269;44.768;9.600;2023-12-20T02:18:17;2.78;;;1.00;;
80623;SDS011;70269;44.768;9.600;2023-12-20T02:20:43;2.53;;;0.82;;
80623;SDS011;70269;44.768;9.600;2023-12-20T02:23:09;2.95;;;1.15;;
80623;SDS011;70269;44.768;9.600;2023-12-20T02:25:35;1.80;;;0.93;;
80623;SDS011;70269;44.768;9.600;2023-12-20T02:28:01;0.63;;;0.40;;
80623;SDS011;70269;44.768;9.600;2023-12-20T02:30:27;0.77;;;0.30;;
80623;SDS011;70269;44.768;9.600;2023-12-20T02:32:52;0.30;;;0.20;;
80623;SDS011;70269;44.768;9.600;2023-12-20T02:35:19;0.50;;;0.45;;
80623;SDS011;70269;44.768;9.600;2023-12-20T02:37:44;0.52;;;0.40;;
80623;SDS011;70269;44.768;9.600;2023-12-20T02:40:10;0.35;;;0.35;;
80623;SDS011;70269;44.768;9.600;2023-12-20T02:42:36;0.43;;;0.20;;
80623;SDS011;70269;44.768;9.600;2023-12-20T02:45:01;9.48;;;3.92;;
80623;SDS011;70269;44.768;9.600;2023-12-20T02:47:27;18.05;;;5.70;;
80623;SDS011;70269;44.768;9.600;2023-12-20T02:49:55;5.60;;;1.95;;
80623;SDS011;70269;44.768;9.600;2023-12-20T02:52:21;0.80;;;0.40;;
80623;SDS011;70269;44.768;9.600;2023-12-20T02:54:47;2.80;;;0.98;;
80623;SDS011;70269;44.768;9.600;2023-12-20T02:57:13;0.60;;;0.57;;
80623;SDS011;70269;44.768;9.600;2023-12-20T02:59:38;2.00;;;0.90;;
80623;SDS011;70269;44.768;9.600;2023-12-20T03:02:04;0.30;;;0.20;;
80623;SDS011;70269;44.768;9.600;2023-12-20T03:04:29;0.50;;;0.30;;
80623;SDS011;70269;44.768;9.600;2023-12-20T03:06:55;0.60;;;0.38;;
80623;SDS011;70269;44.768;9.600;2023-12-20T03:09:20;0.15;;;0.15;;
80623;SDS011;70269;44.768;9.600;2023-12-20T03:11:46;0.52;;;0.38;;
80623;SDS011;70269;44.768;9.600;2023-12-20T03:14:11;1.75;;;0.77;;
80623;SDS011;70269;44.768;9.600;2023-12-20T03:16:37;1.40;;;0.70;;
80623;SDS011;70269;44.768;9.600;2023-12-20T03:19:03;0.10;;;0.10;;
80623;SDS011;70269;44.768;9.600;2023-12-20T03:21:28;1.00;;;0.30;;
80623;SDS011;70269;44.768;9.600;2023-12-20T03:23:54;0.65;;;0.20;;
80623;SDS011;70269;44.768;9.600;2023-12-20T03:26:20;1.00;;;0.68;;
80623;SDS011;70269;44.768;9.600;2023-12-20T03:28:45;1.48;;;0.93;;
80623;SDS011;70269;44.768;9.600;2023-12-20T03:31:11;0.65;;;0.40;;
80623;SDS011;70269;44.768;9.600;2023-12-20T03:33:36;0.82;;;0.50;;
80623;SDS011;70269;44.768;9.600;2023-12-20T03:36:02;1.08;;;0.40;;
80623;SDS011;70269;44.768;9.600;2023-12-20T03:38:27;0.50;;;0.45;;
80623;SDS011;70269;44.768;9.600;2023-12-20T03:40:53;0.45;;;0.30;;
80623;SDS011;70269;44.768;9.600;2023-12-20T03:43:19;0.70;;;0.43;;
80623;SDS011;70269;44.768;9.600;2023-12-20T03:45:44;0.20;;;0.20;;
80623;SDS011;70269;44.768;9.600;2023-12-20T03:48:10;0.30;;;0.30;;
80623;SDS011;70269;44.768;9.600;2023-12-20T03:50:36;1.50;;;0.50;;
80623;SDS011;70269;44.768;9.600;2023-12-20T03:53:02;0.38;;;0.38;;
80623;SDS011;70269;44.768;9.600;2023-12-20T03:55:29;0.95;;;0.63;;
80623;SDS011;70269;44.768;9.600;2023-12-20T03:57:54;1.05;;;0.50;;
80623;SDS011;70269;44.768;9.600;2023-12-20T04:00:20;0.70;;;0.47;;
80623;SDS011;70269;44.768;9.600;2023-12-20T04:02:45;1.00;;;0.38;;
80623;SDS011;70269;44.768;9.600;2023-12-20T04:05:11;0.35;;;0.30;;
80623;SDS011;70269;44.768;9.600;2023-12-20T04:07:37;0.20;;;0.20;;
80623;SDS011;70269;44.768;9.600;2023-12-20T04:10:02;0.10;;;0.10;;
80623;SDS011;70269;44.768;9.600;2023-12-20T04:12:32;1.73;;;0.40;;
80623;SDS011;70269;44.768;9.600;2023-12-20T04:14:58;0.63;;;0.40;;
80623;SDS011;70269;44.768;9.600;2023-12-20T04:17:24;0.40;;;0.13;;
80623;SDS011;70269;44.768;9.600;2023-12-20T04:19:50;0.50;;;0.30;;
80623;SDS011;70269;44.768;9.600;2023-12-20T04:22:16;0.22;;;0.22;;
80623;SDS011;70269;44.768;9.600;2023-12-20T04:24:43;0.10;;;0.10;;
80623;SDS011;70269;44.768;9.600;2023-12-20T04:27:08;0.75;;;0.35;;
80623;SDS011;70269;44.768;9.600;2023-12-20T04:29:34;0.25;;;0.25;;
80623;SDS011;70269;44.768;9.600;2023-12-20T04:31:59;0.85;;;0.60;;
80623;SDS011;70269;44.768;9.600;2023-12-20T04:34:25;1.90;;;0.90;;
80623;SDS011;70269;44.768;9.600;2023-12-20T04:36:51;1.23;;;0.60;;
80623;SDS011;70269;44.768;9.600;2023-12-20T04:39:17;0.73;;;0.73;;
80623;SDS011;70269;44.768;9.600;2023-12-20T04:41:43;1.45;;;0.77;;
80623;SDS011;70269;44.768;9.600;2023-12-20T04:44:08;0.80;;;0.40;;
80623;SDS011;70269;44.768;9.600;2023-12-20T04:46:34;0.93;;;0.50;;
80623;SDS011;70269;44.768;9.600;2023-12-20T04:48:59;1.80;;;0.70;;
80623;SDS011;70269;44.768;9.600;2023-12-20T04:51:25;1.67;;;0.80;;
80623;SDS011;70269;44.768;9.600;2023-12-20T04:53:51;0.60;;;0.50;;
80623;SDS011;70269;44.768;9.600;2023-12-20T04:56:16;2.78;;;1.08;;
80623;SDS011;70269;44.768;9.600;2023-12-20T04:58:42;0.73;;;0.45;;
80623;SDS011;70269;44.768;9.600;2023-12-20T05:01:08;0.65;;;0.43;;
80623;SDS011;70269;44.768;9.600;2023-12-20T05:03:34;0.28;;;0.25;;
80623;SDS011;70269;44.768;9.600;2023-12-20T05:06:00;1.45;;;0.70;;
80623;SDS011;70269;44.768;9.600;2023-12-20T05:08:26;0.85;;;0.30;;
80623;SDS011;70269;44.768;9.600;2023-12-20T05:10:53;1.20;;;0.63;;
80623;SDS011;70269;44.768;9.600;2023-12-20T05:13:19;0.20;;;0.20;;
80623;SDS011;70269;44.768;9.600;2023-12-20T05:15:45;0.45;;;0.22;;
80623;SDS011;70269;44.768;9.600;2023-12-20T05:18:12;0.52;;;0.40;;
80623;SDS011;70269;44.768;9.600;2023-12-20T05:20:38;0.52;;;0.30;;
80623;SDS011;70269;44.768;9.600;2023-12-20T05:23:03;0.38;;;0.32;;
80623;SDS011;70269;44.768;9.600;2023-12-20T05:25:29;0.60;;;0.50;;
80623;SDS011;70269;44.768;9.600;2023-12-20T05:27:55;1.10;;;0.70;;
80623;SDS011;70269;44.768;9.600;2023-12-20T05:30:21;1.88;;;0.70;;
80623;SDS011;70269;44.768;9.600;2023-12-20T05:32:47;0.65;;;0.52;;
80623;SDS011;70269;44.768;9.600;2023-12-20T05:35:13;4.20;;;1.40;;
80623;SDS011;70269;44.768;9.600;2023-12-20T05:37:38;3.38;;;1.15;;
80623;SDS011;70269;44.768;9.600;2023-12-20T05:40:04;2.50;;;1.13;;
80623;SDS011;70269;44.768;9.600;2023-12-20T05:42:30;1.40;;;0.65;;
80623;SDS011;70269;44.768;9.600;2023-12-20T05:44:56;1.27;;;0.50;;
80623;SDS011;70269;44.768;9.600;2023-12-20T05:47:22;1.02;;;0.52;;
80623;SDS011;70269;44.768;9.600;2023-12-20T05:49:47;0.50;;;0.30;;
80623;SDS011;70269;44.768;9.600;2023-12-20T05:52:13;1.75;;;0.50;;
80623;SDS011;70269;44.768;9.600;2023-12-20T05:54:39;3.20;;;1.50;;
80623;SDS011;70269;44.768;9.600;2023-12-20T05:57:04;5.28;;;1.98;;
80623;SDS011;70269;44.768;9.600;2023-12-20T05:59:30;3.08;;;0.68;;
80623;SDS011;70269;44.768;9.600;2023-12-20T06:01:55;5.35;;;1.33;;
80623;SDS011;70269;44.768;9.600;2023-12-20T06:04:21;2.00;;;0.60;;
80623;SDS011;70269;44.768;9.600;2023-12-20T06:06:47;8.13;;;1.40;;
80623;SDS011;70269;44.768;9.600;2023-12-20T06:09:12;3.17;;;1.00;;
80623;SDS011;70269;44.768;9.600;2023-12-20T06:11:38;1.25;;;0.55;;
80623;SDS011;70269;44.768;9.600;2023-12-20T06:14:03;1.67;;;0.80;;
80623;SDS011;70269;44.768;9.600;2023-12-20T06:16:29;3.70;;;0.60;;
80623;SDS011;70269;44.768;9.600;2023-12-20T06:18:55;1.95;;;1.02;;
80623;SDS011;70269;44.768;9.600;2023-12-20T06:21:20;1.35;;;0.82;;
80623;SDS011;70269;44.768;9.600;2023-12-20T06:23:46;3.42;;;1.60;;
80623;SDS011;70269;44.768;9.600;2023-12-20T06:26:11;3.10;;;1.27;;
80623;SDS011;70269;44.768;9.600;2023-12-20T06:28:37;3.85;;;1.42;;
80623;SDS011;70269;44.768;9.600;2023-12-20T06:31:02;2.00;;;0.88;;
80623;SDS011;70269;44.768;9.600;2023-12-20T06:33:29;2.38;;;1.25;;
80623;SDS011;70269;44.768;9.600;2023-12-20T06:35:56;2.72;;;1.20;;
80623;SDS011;70269;44.768;9.600;2023-12-20T06:38:22;1.98;;;0.70;;
80623;SDS011;70269;44.768;9.600;2023-12-20T06:40:48;1.30;;;0.73;;
80623;SDS011;70269;44.768;9.600;2023-12-20T06:43:14;0.65;;;0.35;;
80623;SDS011;70269;44.768;9.600;2023-12-20T06:45:39;0.88;;;0.70;;
80623;SDS011;70269;44.768;9.600;2023-12-20T06:48:06;2.75;;;1.10;;
80623;SDS011;70269;44.768;9.600;2023-12-20T06:50:32;1.13;;;0.70;;
80623;SDS011;70269;44.768;9.600;2023-12-20T06:52:57;1.65;;;0.77;;
80623;SDS011;70269;44.768;9.600;2023-12-20T06:55:23;4.35;;;0.90;;
80623;SDS011;70269;44.768;9.600;2023-12-20T06:57:48;1.00;;;0.40;;
80623;SDS011;70269;44.768;9.600;2023-12-20T07:00:14;1.00;;;0.45;;
80623;SDS011;70269;44.768;9.600;2023-12-20T07:02:40;1.85;;;0.50;;
80623;SDS011;70269;44.768;9.600;2023-12-20T07:05:06;0.60;;;0.38;;
80623;SDS011;70269;44.768;9.600;2023-12-20T07:07:32;0.93;;;0.60;;
80623;SDS011;70269;44.768;9.600;2023-12-20T07:09:57;1.90;;;0.90;;
80623;SDS011;70269;44.768;9.600;2023-12-20T07:12:24;2.58;;;0.93;;
80623;SDS011;70269;44.768;9.600;2023-12-20T07:14:49;0.90;;;0.60;;
80623;SDS011;70269;44.768;9.600;2023-12-20T07:17:15;1.70;;;0.70;;
80623;SDS011;70269;44.768;9.600;2023-12-20T07:19:41;1.55;;;0.70;;
80623;SDS011;70269;44.768;9.600;2023-12-20T07:22:07;1.88;;;0.90;;
80623;SDS011;70269;44.768;9.600;2023-12-20T07:24:33;0.90;;;0.50;;
80623;SDS011;70269;44.768;9.600;2023-12-20T07:26:59;3.05;;;0.95;;
80623;SDS011;70269;44.768;9.600;2023-12-20T07:29:25;0.90;;;0.47;;
80623;SDS011;70269;44.768;9.600;2023-12-20T07:31:52;1.83;;;0.80;;
80623;SDS011;70269;44.768;9.600;2023-12-20T07:34:19;1.83;;;0.85;;
80623;SDS011;70269;44.768;9.600;2023-12-20T07:36:45;0.85;;;0.50;;
80623;SDS011;70269;44.768;9.600;2023-12-20T07:39:11;1.10;;;0.73;;
80623;SDS011;70269;44.768;9.600;2023-12-20T07:41:36;2.92;;;1.48;;
80623;SDS011;70269;44.768;9.600;2023-12-20T07:44:03;3.40;;;0.95;;
80623;SDS011;70269;44.768;9.600;2023-12-20T07:46:30;2.47;;;0.75;;
80623;SDS011;70269;44.768;9.600;2023-12-20T07:48:55;3.47;;;0.63;;
80623;SDS011;70269;44.768;9.600;2023-12-20T07:51:21;1.50;;;0.65;;
80623;SDS011;70269;44.768;9.600;2023-12-20T07:53:47;2.13;;;0.90;;
80623;SDS011;70269;44.768;9.600;2023-12-20T07:56:18;2.50;;;1.17;;
80623;SDS011;70269;44.768;9.600;2023-12-20T07:58:45;1.75;;;0.80;;
80623;SDS011;70269;44.768;9.600;2023-12-20T08:01:11;2.30;;;0.68;;
80623;SDS011;70269;44.768;9.600;2023-12-20T08:03:37;1.13;;;0.70;;
80623;SDS011;70269;44.768;9.600;2023-12-20T08:06:04;7.97;;;3.90;;
80623;SDS011;70269;44.768;9.600;2023-12-20T08:08:30;2.25;;;0.80;;
80623;SDS011;70269;44.768;9.600;2023-12-20T08:10:56;3.17;;;1.10;;
80623;SDS011;70269;44.768;9.600;2023-12-20T08:13:24;3.50;;;1.75;;
80623;SDS011;70269;44.768;9.600;2023-12-20T08:15:51;2.97;;;1.58;;
80623;SDS011;70269;44.768;9.600;2023-12-20T08:18:21;2.50;;;1.50;;
80623;SDS011;70269;44.768;9.600;2023-12-20T08:20:48;4.35;;;1.15;;
80623;SDS011;70269;44.768;9.600;2023-12-20T08:23:13;2.13;;;1.08;;
80623;SDS011;70269;44.768;9.600;2023-12-20T08:25:39;2.47;;;1.00;;
80623;SDS011;70269;44.768;9.600;2023-12-20T08:28:04;0.63;;;0.45;;
80623;SDS011;70269;44.768;9.600;2023-12-20T08:30:30;1.55;;;0.95;;
80623;SDS011;70269;44.768;9.600;2023-12-20T08:32:56;3.78;;;1.35;;
80623;SDS011;70269;44.768;9.600;2023-12-20T08:35:24;3.45;;;1.73;;
80623;SDS011;70269;44.768;9.600;2023-12-20T08:37:50;3.25;;;1.48;;
80623;SDS011;70269;44.768;9.600;2023-12-20T08:40:15;2.88;;;1.10;;
80623;SDS011;70269;44.768;9.600;2023-12-20T08:42:41;1.77;;;0.85;;
80623;SDS011;70269;44.768;9.600;2023-12-20T08:45:07;2.85;;;1.48;;
80623;SDS011;70269;44.768;9.600;2023-12-20T08:47:33;2.53;;;1.17;;
80623;SDS011;70269;44.768;9.600;2023-12-20T08:49:58;2.80;;;1.35;;
80623;SDS011;70269;44.768;9.600;2023-12-20T08:52:25;2.83;;;1.25;;
80623;SDS011;70269;44.768;9.600;2023-12-20T08:54:52;2.78;;;1.58;;
80623;SDS011;70269;44.768;9.600;2023-12-20T08:57:22;4.80;;;1.60;;
80623;SDS011;70269;44.768;9.600;2023-12-20T08:59:50;3.70;;;1.52;;
80623;SDS011;70269;44.768;9.600;2023-12-20T09:02:16;3.90;;;1.73;;
80623;SDS011;70269;44.768;9.600;2023-12-20T09:04:42;4.47;;;1.83;;
80623;SDS011;70269;44.768;9.600;2023-12-20T09:07:22;5.30;;;2.35;;
80623;SDS011;70269;44.768;9.600;2023-12-20T09:09:49;3.45;;;1.75;;
80623;SDS011;70269;44.768;9.600;2023-12-20T09:12:15;6.78;;;1.20;;
80623;SDS011;70269;44.768;9.600;2023-12-20T09:14:42;2.17;;;1.05;;
80623;SDS011;70269;44.768;9.600;2023-12-20T09:17:08;2.30;;;1.05;;
80623;SDS011;70269;44.768;9.600;2023-12-20T09:19:34;3.20;;;1.27;;
80623;SDS011;70269;44.768;9.600;2023-12-20T09:21:59;3.00;;;1.10;;
80623;SDS011;70269;44.768;9.600;2023-12-20T09:24:27;2.72;;;1.20;;
80623;SDS011;70269;44.768;9.600;2023-12-20T09:26:52;2.50;;;1.00;;
80623;SDS011;70269;44.768;9.600;2023-12-20T09:29:18;3.50;;;1.30;;
80623;SDS011;70269;44.768;9.600;2023-12-20T09:31:44;2.25;;;1.02;;
80623;SDS011;70269;44.768;9.600;2023-12-20T09:34:11;3.05;;;1.38;;
80623;SDS011;70269;44.768;9.600;2023-12-20T09:36:37;2.45;;;1.00;;
80623;SDS011;70269;44.768;9.600;2023-12-20T09:39:05;5.05;;;1.95;;
80623;SDS011;70269;44.768;9.600;2023-12-20T09:41:31;5.53;;;2.72;;
80623;SDS011;70269;44.768;9.600;2023-12-20T09:44:06;3.58;;;1.60;;
80623;SDS011;70269;44.768;9.600;2023-12-20T09:46:35;4.70;;;2.45;;
80623;SDS011;70269;44.768;9.600;2023-12-20T09:49:05;4.22;;;1.83;;
80623;SDS011;70269;44.768;9.600;2023-12-20T09:51:31;4.20;;;1.15;;
80623;SDS011;70269;44.768;9.600;2023-12-20T09:53:58;6.68;;;1.52;;
80623;SDS011;70269;44.768;9.600;2023-12-20T09:56:26;5.50;;;1.52;;
80623;SDS011;70269;44.768;9.600;2023-12-20T09:58:51;3.22;;;1.83;;
80623;SDS011;70269;44.768;9.600;2023-12-20T10:01:19;4.38;;;1.70;;
80623;SDS011;70269;44.768;9.600;2023-12-20T10:03:45;3.15;;;1.58;;
80623;SDS011;70269;44.768;9.600;2023-12-20T10:06:10;3.90;;;1.63;;
80623;SDS011;70269;44.768;9.600;2023-12-20T10:08:36;5.65;;;2.15;;
80623;SDS011;70269;44.768;9.600;2023-12-20T10:11:02;11.70;;;3.75;;
80623;SDS011;70269;44.768;9.600;2023-12-20T10:13:29;12.82;;;5.10;;
80623;SDS011;70269;44.768;9.600;2023-12-20T10:15:55;10.40;;;3.55;;
80623;SDS011;70269;44.768;9.600;2023-12-20T10:18:21;8.85;;;3.83;;
80623;SDS011;70269;44.768;9.600;2023-12-20T10:20:46;4.28;;;1.77;;
80623;SDS011;70269;44.768;9.600;2023-12-20T10:23:13;3.00;;;1.50;;
80623;SDS011;70269;44.768;9.600;2023-12-20T10:25:40;2.35;;;1.10;;
80623;SDS011;70269;44.768;9.600;2023-12-20T10:28:12;3.53;;;0.95;;
80623;SDS011;70269;44.768;9.600;2023-12-20T10:30:39;1.88;;;0.80;;
80623;SDS011;70269;44.768;9.600;2023-12-20T10:33:06;9.85;;;4.63;;
80623;SDS011;70269;44.768;9.600;2023-12-20T10:35:35;8.93;;;3.65;;
80623;SDS011;70269;44.768;9.600;2023-12-20T10:38:05;11.35;;;3.45;;
80623;SDS011;70269;44.768;9.600;2023-12-20T10:40:35;6.95;;;3.83;;
80623;SDS011;70269;44.768;9.600;2023-12-20T10:43:04;8.30;;;3.28;;
80623;SDS011;70269;44.768;9.600;2023-12-20T10:45:30;5.97;;;2.88;;
80623;SDS011;70269;44.768;9.600;2023-12-20T10:47:57;8.70;;;3.35;;
80623;SDS011;70269;44.768;9.600;2023-12-20T10:50:26;4.65;;;2.33;;
80623;SDS011;70269;44.768;9.600;2023-12-20T10:52:53;6.82;;;2.28;;
80623;SDS011;70269;44.768;9.600;2023-12-20T10:55:23;5.80;;;2.20;;
80623;SDS011;70269;44.768;9.600;2023-12-20T10:58:09;4.45;;;1.85;;
80623;SDS011;70269;44.768;9.600;2023-12-20T11:00:36;3.70;;;1.77;;
80623;SDS011;70269;44.768;9.600;2023-12-20T11:03:05;4.38;;;1.50;;
80623;SDS011;70269;44.768;9.600;2023-12-20T11:05:36;2.72;;;1.25;;
80623;SDS011;70269;44.768;9.600;2023-12-20T11:08:28;3.83;;;1.55;;
80623;SDS011;70269;44.768;9.600;2023-12-20T11:11:06;3.60;;;1.40;;
80623;SDS011;70269;44.768;9.600;2023-12-20T11:13:40;2.53;;;1.35;;
80623;SDS011;70269;44.768;9.600;2023-12-20T11:16:13;4.03;;;1.60;;
80623;SDS011;70269;44.768;9.600;2023-12-20T11:18:40;8.48;;;3.97;;
80623;SDS011;70269;44.768;9.600;2023-12-20T11:21:06;16.77;;;5.10;;
80623;SDS011;70269;44.768;9.600;2023-12-20T11:23:32;12.18;;;4.90;;
80623;SDS011;70269;44.768;9.600;2023-12-20T11:26:01;9.15;;;4.85;;
80623;SDS011;70269;44.768;9.600;2023-12-20T11:28:28;11.57;;;5.13;;
80623;SDS011;70269;44.768;9.600;2023-12-20T11:30:55;7.07;;;3.58;;
80623;SDS011;70269;44.768;9.600;2023-12-20T11:33:25;9.00;;;3.60;;
80623;SDS011;70269;44.768;9.600;2023-12-20T11:35:52;8.25;;;3.28;;
80623;SDS011;70269;44.768;9.600;2023-12-20T11:38:21;6.95;;;2.97;;
80623;SDS011;70269;44.768;9.600;2023-12-20T11:40:50;9.43;;;3.63;;
80623;SDS011;70269;44.768;9.600;2023-12-20T11:46:02;7.72;;;2.92;;
80623;SDS011;70269;44.768;9.600;2023-12-20T11:48:30;6.80;;;2.60;;
80623;SDS011;70269;44.768;9.600;2023-12-20T11:50:56;3.97;;;2.13;;
80623;SDS011;70269;44.768;9.600;2023-12-20T11:53:22;2.53;;;1.25;;
80623;SDS011;70269;44.768;9.600;2023-12-20T11:55:50;4.38;;;1.60;;
80623;SDS011;70269;44.768;9.600;2023-12-20T11:58:16;2.97;;;1.08;;
80623;SDS011;70269;44.768;9.600;2023-12-20T12:00:42;2.08;;;0.98;;
80623;SDS011;70269;44.768;9.600;2023-12-20T12:03:08;3.75;;;1.38;;
80623;SDS011;70269;44.768;9.600;2023-12-20T12:05:35;2.05;;;1.17;;
80623;SDS011;70269;44.768;9.600;2023-12-20T12:08:01;3.38;;;1.38;;
80623;SDS011;70269;44.768;9.600;2023-12-20T12:10:28;8.10;;;2.45;;
80623;SDS011;70269;44.768;9.600;2023-12-20T12:12:54;8.07;;;4.22;;
80623;SDS011;70269;44.768;9.600;2023-12-20T12:15:20;11.35;;;4.45;;
80623;SDS011;70269;44.768;9.600;2023-12-20T12:17:56;10.90;;;5.60;;
80623;SDS011;70269;44.768;9.600;2023-12-20T12:20:22;8.05;;;4.10;;
80623;SDS011;70269;44.768;9.600;2023-12-20T12:23:04;8.02;;;3.95;;
80623;SDS011;70269;44.768;9.600;2023-12-20T12:25:31;10.38;;;4.60;;
80623;SDS011;70269;44.768;9.600;2023-12-20T12:27:58;8.10;;;4.15;;
80623;SDS011;70269;44.768;9.600;2023-12-20T12:30:24;9.45;;;4.05;;
80623;SDS011;70269;44.768;9.600;2023-12-20T12:32:53;16.63;;;3.95;;
80623;SDS011;70269;44.768;9.600;2023-12-20T12:35:19;6.82;;;3.40;;
80623;SDS011;70269;44.768;9.600;2023-12-20T12:37:45;5.97;;;3.03;;
80623;SDS011;70269;44.768;9.600;2023-12-20T12:40:11;8.30;;;3.25;;
80623;SDS011;70269;44.768;9.600;2023-12-20T12:42:39;5.25;;;2.42;;
80623;SDS011;70269;44.768;9.600;2023-12-20T12:45:06;5.15;;;2.58;;
80623;SDS011;70269;44.768;9.600;2023-12-20T12:47:32;8.10;;;3.10;;
80623;SDS011;70269;44.768;9.600;2023-12-20T12:49:58;5.10;;;2.70;;
80623;SDS011;70269;44.768;9.600;2023-12-20T12:52:24;10.10;;;3.72;;
80623;SDS011;70269;44.768;9.600;2023-12-20T12:54:51;6.93;;;3.22;;
80623;SDS011;70269;44.768;9.600;2023-12-20T12:57:17;7.57;;;3.70;;
80623;SDS011;70269;44.768;9.600;2023-12-20T12:59:43;12.02;;;5.32;;
80623;SDS011;70269;44.768;9.600;2023-12-20T13:02:11;14.82;;;6.03;;
80623;SDS011;70269;44.768;9.600;2023-12-20T13:04:36;12.40;;;3.83;;
80623;SDS011;70269;44.768;9.600;2023-12-20T13:07:02;8.45;;;3.63;;
80623;SDS011;70269;44.768;9.600;2023-12-20T13:09:28;7.47;;;3.10;;
80623;SDS011;70269;44.768;9.600;2023-12-20T13:11:54;7.85;;;4.00;;
80623;SDS011;70269;44.768;9.600;2023-12-20T13:14:20;10.50;;;3.80;;
80623;SDS011;70269;44.768;9.600;2023-12-20T13:16:45;9.38;;;3.58;;
80623;SDS011;70269;44.768;9.600;2023-12-20T13:19:11;9.15;;;3.58;;
80623;SDS011;70269;44.768;9.600;2023-12-20T13:21:36;7.60;;;3.88;;
80623;SDS011;70269;44.768;9.600;2023-12-20T13:24:02;6.97;;;3.25;;
80623;SDS011;70269;44.768;9.600;2023-12-20T13:26:28;9.57;;;4.03;;
80623;SDS011;70269;44.768;9.600;2023-12-20T13:28:54;8.05;;;3.40;;
80623;SDS011;70269;44.768;9.600;2023-12-20T13:31:20;7.35;;;3.72;;
80623;SDS011;70269;44.768;9.600;2023-12-20T13:33:45;7.63;;;3.33;;
80623;SDS011;70269;44.768;9.600;2023-12-20T13:36:11;7.60;;;4.05;;
80623;SDS011;70269;44.768;9.600;2023-12-20T13:38:37;9.65;;;3.88;;
80623;SDS011;70269;44.768;9.600;2023-12-20T13:41:03;9.80;;;3.90;;
80623;SDS011;70269;44.768;9.600;2023-12-20T13:43:30;10.73;;;4.22;;
80623;SDS011;70269;44.768;9.600;2023-12-20T13:45:58;8.30;;;4.40;;
80623;SDS011;70269;44.768;9.600;2023-12-20T13:48:24;11.00;;;3.42;;
80623;SDS011;70269;44.768;9.600;2023-12-20T13:50:50;8.85;;;4.32;;
80623;SDS011;70269;44.768;9.600;2023-12-20T13:53:15;8.70;;;3.78;;
80623;SDS011;70269;44.768;9.600;2023-12-20T13:55:41;7.22;;;3.95;;
80623;SDS011;70269;44.768;9.600;2023-12-20T13:58:07;8.30;;;3.72;;
80623;SDS011;70269;44.768;9.600;2023-12-20T14:00:32;8.95;;;4.78;;
80623;SDS011;70269;44.768;9.600;2023-12-20T14:02:58;7.88;;;4.15;;
80623;SDS011;70269;44.768;9.600;2023-12-20T14:05:24;9.35;;;4.18;;
80623;SDS011;70269;44.768;9.600;2023-12-20T14:07:49;9.40;;;3.63;;
80623;SDS011;70269;44.768;9.600;2023-12-20T14:10:15;7.90;;;3.45;;
80623;SDS011;70269;44.768;9.600;2023-12-20T14:12:41;8.02;;;3.53;;
80623;SDS011;70269;44.768;9.600;2023-12-20T14:15:07;6.97;;;4.03;;
80623;SDS011;70269;44.768;9.600;2023-12-20T14:17:38;8.32;;;3.40;;
80623;SDS011;70269;44.768;9.600;2023-12-20T14:20:05;8.70;;;3.40;;
80623;SDS011;70269;44.768;9.600;2023-12-20T14:22:32;9.43;;;5.03;;
80623;SDS011;70269;44.768;9.600;2023-12-20T14:24:58;10.85;;;5.25;;
80623;SDS011;70269;44.768;9.600;2023-12-20T14:27:23;11.02;;;4.95;;
80623;SDS011;70269;44.768;9.600;2023-12-20T14:29:53;12.45;;;5.70;;
80623;SDS011;70269;44.768;9.600;2023-12-20T14:32:18;4.45;;;2.10;;
80623;SDS011;70269;44.768;9.600;2023-12-20T14:34:44;12.35;;;6.47;;
80623;SDS011;70269;44.768;9.600;2023-12-20T14:37:10;13.93;;;7.45;;
80623;SDS011;70269;44.768;9.600;2023-12-20T14:39:35;18.38;;;7.03;;
80623;SDS011;70269;44.768;9.600;2023-12-20T14:42:09;6.20;;;2.95;;
80623;SDS011;70269;44.768;9.600;2023-12-20T14:44:39;11.68;;;2.47;;